Time;durP1;ratioP1;P1;durP2;ratioP2;P2;SDS_P1;SDS_P2;PMS_P1;PMS_P2;Temp;Humidity;BMP_temperature;BMP_pressure;BME280_temperature;BME280_humidity;BME280_pressure;Samples;Min_cycle;Max_cycle;Signal;HPM_P1;HPM_P2
2021/04/26 00:02:07;;;;;;;3.58;0.90;;;;;;;1.20;62.77;101557.41;3537406;40;20110;-48
2021/04/26 00:04:33;;;;;;;2.42;1.02;;;;;;;0.73;63.81;101552.94;3535747;40;20195;-48
2021/04/26 00:07:00;;;;;;;3.72;0.80;;;;;;;0.51;64.55;101557.06;3535144;40;20406;-47
2021/04/26 00:09:27;;;;;;;1.20;0.90;;;;;;;0.89;64.40;101550.00;3535114;40;20103;-43
2021/04/26 00:11:53;;;;;;;2.22;0.80;;;;;;;1.38;62.24;101545.31;3534987;40;20061;-42
2021/04/26 00:14:20;;;;;;;1.45;0.60;;;;;;;0.57;63.52;101544.97;3533852;40;20114;-49
2021/04/26 00:16:47;;;;;;;3.13;0.77;;;;;;;0.48;64.16;101540.06;3534586;40;20077;-43
2021/04/26 00:19:13;;;;;;;1.25;1.00;;;;;;;0.33;64.49;101536.34;3534821;40;20409;-47
2021/04/26 00:21:40;;;;;;;2.15;0.88;;;;;;;0.40;65.24;101542.72;3541231;40;20090;-46
2021/04/26 00:24:07;;;;;;;2.05;0.80;;;;;;;0.46;64.89;101534.03;3550639;40;20204;-47
2021/04/26 00:26:34;;;;;;;2.53;1.02;;;;;;;0.83;63.16;101538.53;3543604;40;20090;-46
2021/04/26 00:29:00;;;;;;;2.60;0.93;;;;;;;0.52;64.78;101537.78;3551105;40;20438;-48
2021/04/26 00:31:27;;;;;;;1.30;1.00;;;;;;;0.19;66.27;101527.66;3544677;40;20145;-49
2021/04/26 00:33:53;;;;;;;2.10;1.10;;;;;;;0.08;66.13;101533.47;3535915;40;20121;-46
2021/04/26 00:36:21;;;;;;;2.92;0.80;;;;;;;-0.02;65.40;101530.97;3535794;40;20058;-45
2021/04/26 00:38:48;;;;;;;2.05;1.13;;;;;;;0.10;64.39;101529.44;3536547;40;20062;-43
2021/04/26 00:41:14;;;;;;;1.48;0.77;;;;;;;0.40;64.82;101535.16;3536419;40;20058;-45
2021/04/26 00:43:41;;;;;;;2.63;0.80;;;;;;;0.81;63.30;101528.34;3535907;40;20098;-46
2021/04/26 00:46:07;;;;;;;2.20;1.25;;;;;;;0.62;65.09;101527.69;3536195;40;20141;-46
2021/04/26 00:48:34;;;;;;;2.30;1.08;;;;;;;0.40;66.17;101522.56;3535641;40;20153;-48
2021/04/26 00:51:00;;;;;;;1.98;0.77;;;;;;;0.66;64.92;101527.16;3535494;40;20090;-47
2021/04/26 00:53:27;;;;;;;3.90;0.90;;;;;;;0.76;63.92;101520.44;3535924;40;20063;-48
2021/04/26 00:55:54;;;;;;;1.27;0.60;;;;;;;0.24;64.67;101517.97;3535892;40;20070;-46
2021/04/26 00:58:21;;;;;;;2.13;1.00;;;;;;;-0.22;66.17;101515.88;3535551;40;20066;-47
2021/04/26 01:00:48;;;;;;;1.95;0.63;;;;;;;-0.09;66.48;101511.97;3536063;40;20062;-43
2021/04/26 01:03:14;;;;;;;1.08;0.60;;;;;;;-0.36;68.40;101517.25;3535912;40;20097;-42
2021/04/26 01:05:41;;;;;;;0.85;0.70;;;;;;;-0.25;68.60;101506.44;3536083;40;20106;-47
2021/04/26 01:08:08;;;;;;;1.48;0.70;;;;;;;0.07;68.01;101506.53;3535607;40;20114;-48
2021/04/26 01:10:35;;;;;;;2.70;0.73;;;;;;;0.10;68.14;101501.75;3535457;40;20069;-44
2021/04/26 01:13:27;;;;;;;1.63;0.90;;;;;;;0.06;66.54;101502.25;3535904;40;20312;-46
2021/04/26 01:16:12;;;;;;;2.05;0.80;;;;;;;-0.33;67.74;101492.34;3535432;40;20075;-44
2021/04/26 01:18:44;;;;;;;1.02;0.60;;;;;;;0.11;67.11;101495.06;3535502;40;20094;-49
2021/04/26 01:21:16;;;;;;;6.75;0.90;;;;;;;-0.29;67.58;101494.34;3535017;40;20081;-45
2021/04/26 01:24:12;;;;;;;0.85;0.50;;;;;;;-0.59;69.27;101483.53;3535432;40;20043;-46
2021/04/26 01:27:03;;;;;;;1.95;1.00;;;;;;;-0.17;68.51;101485.28;3533603;40;20069;-44
2021/04/26 01:29:51;;;;;;;7.30;1.15;;;;;;;-0.47;68.54;101483.66;3544206;40;20053;-44
2021/04/26 01:32:30;;;;;;;3.65;0.90;;;;;;;-0.46;68.94;101484.53;3551805;40;20491;-43
2021/04/26 01:34:59;;;;;;;3.03;0.93;;;;;;;-0.37;68.32;101473.63;3554316;40;20104;-50
2021/04/26 01:37:30;;;;;;;1.40;0.80;;;;;;;-0.60;69.67;101475.84;3554815;40;20086;-47
2021/04/26 01:39:57;;;;;;;1.52;0.65;;;;;;;-0.83;69.65;101471.44;3552192;40;20058;-42
2021/04/26 01:42:23;;;;;;;2.95;1.00;;;;;;;-0.86;69.84;101476.22;3545273;40;20062;-47
2021/04/26 01:44:51;;;;;;;2.45;1.00;;;;;;;-0.79;69.31;101479.38;3544858;40;20062;-48
2021/04/26 01:47:19;;;;;;;1.67;0.90;;;;;;;-0.73;69.06;101471.47;3544696;40;20105;-46
2021/04/26 01:49:48;;;;;;;1.35;0.80;;;;;;;-0.95;69.57;101475.44;3545010;40;20061;-48
2021/04/26 01:52:15;;;;;;;1.85;0.77;;;;;;;-0.83;70.25;101471.44;3544600;40;20082;-47
2021/04/26 01:54:42;;;;;;;1.30;0.90;;;;;;;-0.41;68.78;101469.09;3544726;40;20113;-49
2021/04/26 01:57:09;;;;;;;0.95;0.65;;;;;;;-0.72;69.80;101467.31;3544204;40;20562;-44
2021/04/26 01:59:38;;;;;;;3.63;0.95;;;;;;;-0.67;70.29;101468.56;3545217;40;20098;-48
2021/04/26 02:02:06;;;;;;;3.13;1.80;;;;;;;-0.58;70.23;101470.19;3544560;40;20050;-43
2021/04/26 02:04:36;;;;;;;4.32;0.88;;;;;;;-0.47;69.10;101471.06;3544804;40;20054;-47
2021/04/26 02:07:04;;;;;;;2.05;0.60;;;;;;;-0.65;69.44;101467.91;3544374;40;20893;-48
2021/04/26 02:09:34;;;;;;;2.50;0.63;;;;;;;-0.68;69.33;101471.84;3545107;40;20053;-46
2021/04/26 02:12:01;;;;;;;1.67;0.65;;;;;;;-0.79;70.06;101473.44;3550494;40;20732;-45
2021/04/26 02:14:28;;;;;;;1.02;0.50;;;;;;;-1.10;71.06;101465.84;3554044;40;20045;-47
2021/04/26 02:16:55;;;;;;;0.88;0.57;;;;;;;-1.24;70.29;101465.44;3553915;40;20093;-46
2021/04/26 02:19:22;;;;;;;1.63;0.63;;;;;;;-1.06;68.86;101462.84;3553780;40;20077;-45
2021/04/26 02:21:49;;;;;;;1.58;0.70;;;;;;;-0.74;68.09;101468.78;3553990;40;20094;-44
2021/04/26 02:24:15;;;;;;;2.28;0.65;;;;;;;-0.80;68.48;101466.66;3554457;40;20045;-47
2021/04/26 02:26:42;;;;;;;2.22;0.70;;;;;;;-1.14;70.62;101466.34;3553488;40;20150;-49
2021/04/26 02:29:08;;;;;;;1.55;0.68;;;;;;;-0.85;69.87;101456.22;3553617;40;20058;-45
2021/04/26 02:31:36;;;;;;;1.13;0.88;;;;;;;-0.51;68.75;101469.06;3553615;40;20102;-44
2021/04/26 02:34:19;;;;;;;2.33;0.98;;;;;;;-0.52;69.21;101457.25;3554044;40;20655;-44
2021/04/26 02:36:50;;;;;;;1.02;0.70;;;;;;;-0.75;70.12;101459.50;3553859;40;20085;-44
2021/04/26 02:39:18;;;;;;;1.17;0.60;;;;;;;-0.92;70.20;101455.59;3554016;40;20053;-50
2021/04/26 02:41:46;;;;;;;1.80;0.77;;;;;;;-0.81;69.67;101449.81;3554057;40;20090;-49
2021/04/26 02:44:26;;;;;;;1.38;0.70;;;;;;;-1.22;69.81;101457.28;3554192;40;20105;-47
2021/04/26 02:47:09;;;;;;;1.20;0.65;;;;;;;-1.36;69.56;101455.22;3545055;40;20136;-47
2021/04/26 02:49:39;;;;;;;1.33;0.52;;;;;;;-0.98;68.33;101450.91;3544385;40;20161;-43
2021/04/26 02:52:08;;;;;;;1.40;0.77;;;;;;;-0.73;68.18;101451.34;3543998;40;20058;-43
2021/04/26 02:54:35;;;;;;;1.10;0.75;;;;;;;-0.37;67.04;101445.03;3544956;40;20153;-51
2021/04/26 02:57:03;;;;;;;2.17;0.70;;;;;;;-0.65;67.83;101451.94;3545397;40;20045;-43
2021/04/26 02:59:30;;;;;;;2.65;0.80;;;;;;;-0.91;68.80;101445.66;3553545;40;20460;-48
2021/04/26 03:01:57;;;;;;;1.95;0.90;;;;;;;-0.64;67.89;101453.75;3559208;40;20112;-50
2021/04/26 03:04:29;;;;;;;2.97;0.68;;;;;;;-1.00;68.23;101446.53;3555423;40;20054;-45
2021/04/26 03:06:59;;;;;;;1.90;0.70;;;;;;;-0.75;67.49;101450.31;3554588;40;20049;-45
2021/04/26 03:09:28;;;;;;;3.58;0.60;;;;;;;-0.76;66.88;101451.06;3554518;40;20102;-45
2021/04/26 03:11:56;;;;;;;1.63;0.60;;;;;;;-1.19;68.05;101444.97;3544919;40;20057;-45
2021/04/26 03:14:24;;;;;;;1.60;0.85;;;;;;;-1.06;69.16;101445.25;3544915;40;20123;-43
2021/04/26 03:16:52;;;;;;;2.05;1.08;;;;;;;-0.95;68.33;101453.69;3545005;40;20600;-42
2021/04/26 03:19:20;;;;;;;2.55;0.55;;;;;;;-0.62;67.32;101452.22;3544493;40;20094;-48
2021/04/26 03:21:49;;;;;;;1.15;0.73;;;;;;;-0.61;67.08;101452.34;3544681;40;20478;-47
2021/04/26 03:24:19;;;;;;;1.42;0.60;;;;;;;-0.75;67.91;101450.31;3544651;40;20065;-44
2021/04/26 03:26:47;;;;;;;1.65;0.75;;;;;;;-0.98;67.51;101450.91;3544479;40;20069;-46
2021/04/26 03:29:17;;;;;;;3.75;0.70;;;;;;;-0.90;67.82;101446.53;3544442;40;20061;-46
2021/04/26 03:31:45;;;;;;;2.55;0.70;;;;;;;-1.05;68.20;101443.63;3544643;40;20065;-44
2021/04/26 03:34:12;;;;;;;2.13;0.82;;;;;;;-1.16;68.47;101442.69;3544333;40;20058;-43
2021/04/26 03:36:40;;;;;;;0.93;0.60;;;;;;;-1.24;69.55;101445.34;3544284;40;20093;-44
2021/04/26 03:39:24;;;;;;;0.50;0.50;;;;;;;-1.58;69.65;101445.84;3544191;40;20565;-51
2021/04/26 03:41:54;;;;;;;1.83;0.50;;;;;;;-1.54;70.83;101442.84;3543716;40;20061;-44
2021/04/26 03:44:28;;;;;;;1.67;0.90;;;;;;;-1.71;71.33;101447.16;3543484;40;20085;-44
2021/04/26 03:47:03;;;;;;;3.90;0.85;;;;;;;-1.71;71.88;101452.19;3549541;40;20053;-45
2021/04/26 03:49:34;;;;;;;1.63;0.68;;;;;;;-1.77;71.78;101452.53;3548831;40;20058;-44
2021/04/26 03:52:07;;;;;;;0.70;0.70;;;;;;;-1.43;71.31;101446.28;3539965;40;20177;-41
2021/04/26 03:54:42;;;;;;;1.80;1.08;;;;;;;-1.19;70.74;101460.06;3543498;40;20324;-42
2021/04/26 03:57:08;;;;;;;1.38;0.73;;;;;;;-0.88;70.61;101453.47;3543335;40;20065;-45
2021/04/26 03:59:35;;;;;;;1.05;0.95;;;;;;;-0.89;69.48;101455.81;3543150;40;20133;-46
2021/04/26 04:02:02;;;;;;;2.38;0.75;;;;;;;-1.15;70.50;101456.19;3541728;40;20729;-48
2021/04/26 04:04:29;;;;;;;0.93;0.68;;;;;;;-1.56;71.28;101451.00;3543075;40;20625;-46
2021/04/26 04:06:55;;;;;;;1.98;0.80;;;;;;;-1.86;72.51;101454.25;3540829;40;20093;-46
2021/04/26 04:09:22;;;;;;;2.35;0.75;;;;;;;-1.17;70.77;101460.19;3539431;40;20061;-42
2021/04/26 04:11:56;;;;;;;2.75;1.20;;;;;;;-0.80;68.61;101451.56;3541068;40;20086;-43
2021/04/26 04:14:22;;;;;;;1.92;0.75;;;;;;;-1.23;68.71;101453.00;3542947;40;20058;-43
2021/04/26 04:16:49;;;;;;;2.20;0.50;;;;;;;-1.46;70.80;101460.22;3543048;40;20075;-42
2021/04/26 04:19:16;;;;;;;3.20;0.90;;;;;;;-1.61;71.35;101452.25;3543309;40;20070;-43
2021/04/26 04:21:42;;;;;;;2.80;1.00;;;;;;;-1.40;71.18;101460.72;3543584;40;20325;-44
2021/04/26 04:24:10;;;;;;;1.17;0.90;;;;;;;-1.36;70.94;101460.25;3562944;23;20086;-42
2021/04/26 04:26:36;;;;;;;2.67;0.90;;;;;;;-1.49;71.59;101453.28;3560361;40;20434;-42
2021/04/26 04:29:05;;;;;;;5.13;1.10;;;;;;;-1.46;71.58;101455.19;3561711;40;20044;-42
2021/04/26 04:31:32;;;;;;;7.25;1.40;;;;;;;-1.49;72.23;101457.44;3561604;40;20077;-41
2021/04/26 04:33:58;;;;;;;2.00;1.30;;;;;;;-1.57;72.51;101450.13;3573029;40;20049;-41
2021/04/26 04:36:25;;;;;;;1.63;1.20;;;;;;;-1.52;72.87;101460.56;3561655;40;20060;-43
2021/04/26 04:38:52;;;;;;;1.85;1.30;;;;;;;-1.55;72.02;101452.75;3561029;40;20139;-41
2021/04/26 04:41:19;;;;;;;2.20;0.90;;;;;;;-1.43;72.56;101451.31;3561763;40;20045;-41
2021/04/26 04:43:46;;;;;;;6.57;1.23;;;;;;;-1.42;72.62;101443.03;3561624;40;20166;-41
2021/04/26 04:46:13;;;;;;;3.45;1.10;;;;;;;-1.41;73.17;101443.91;3560822;40;20610;-44
2021/04/26 04:48:40;;;;;;;1.52;0.90;;;;;;;-1.39;72.16;101445.78;3561612;40;20061;-43
2021/04/26 04:51:06;;;;;;;3.25;0.82;;;;;;;-1.37;73.05;101448.44;3561744;40;20081;-41
2021/04/26 04:53:33;;;;;;;2.55;1.52;;;;;;;-1.33;72.92;101443.81;3561483;40;20061;-41
2021/04/26 04:55:59;;;;;;;2.85;1.17;;;;;;;-1.34;73.07;101442.06;3561876;40;20403;-41
2021/04/26 04:58:26;;;;;;;1.63;1.15;;;;;;;-1.10;71.86;101444.88;3561793;40;20053;-41
2021/04/26 05:00:53;;;;;;;4.50;1.55;;;;;;;-1.11;72.07;101453.13;3561862;40;20098;-41
2021/04/26 05:03:20;;;;;;;3.08;1.30;;;;;;;-1.00;71.79;101449.91;3561930;40;20053;-41
2021/04/26 05:05:46;;;;;;;5.18;1.40;;;;;;;-0.93;71.17;101449.66;3561184;40;20050;-41
2021/04/26 05:08:13;;;;;;;1.52;1.20;;;;;;;-0.80;70.93;101446.53;3561997;40;20084;-42
2021/04/26 05:10:39;;;;;;;4.68;1.35;;;;;;;-0.60;69.98;101449.09;3561398;40;20074;-40
2021/04/26 05:13:06;;;;;;;2.72;1.30;;;;;;;-0.68;70.56;101451.72;3561949;40;20108;-41
2021/04/26 05:15:32;;;;;;;2.72;1.38;;;;;;;-0.62;70.41;101447.19;3562880;40;20073;-39
2021/04/26 05:18:00;;;;;;;3.67;1.88;;;;;;;-0.24;69.02;101446.91;3563379;40;20152;-39
2021/04/26 05:20:27;;;;;;;2.55;1.35;;;;;;;-0.11;68.01;101449.66;3563112;40;20085;-40
2021/04/26 05:22:57;;;;;;;7.30;1.35;;;;;;;-0.13;68.08;101446.16;3563107;40;20078;-40
2021/04/26 05:25:24;;;;;;;3.55;1.40;;;;;;;0.07;67.76;101445.22;3563081;40;20063;-40
2021/04/26 05:27:50;;;;;;;3.25;1.60;;;;;;;0.31;67.15;101447.16;3564169;40;20049;-40
2021/04/26 05:30:18;;;;;;;2.28;1.10;;;;;;;0.35;66.84;101444.13;3564399;40;20065;-40
2021/04/26 05:32:47;;;;;;;4.95;1.60;;;;;;;0.66;66.23;101456.59;3562459;40;20057;-40
2021/04/26 05:35:13;;;;;;;5.28;1.40;;;;;;;0.56;66.36;101444.06;3552924;40;20089;-42
2021/04/26 05:37:40;;;;;;;4.32;1.50;;;;;;;0.66;66.27;101457.47;3550377;40;20385;-43
2021/04/26 05:40:18;;;;;;;3.47;1.30;;;;;;;1.48;63.64;101446.84;3552626;40;20452;-44
2021/04/26 05:42:49;;;;;;;2.90;1.20;;;;;;;1.49;63.40;101449.47;3557821;40;20085;-44
2021/04/26 05:45:18;;;;;;;1.63;1.38;;;;;;;1.65;63.40;101443.91;3559232;40;20085;-44
2021/04/26 05:47:45;;;;;;;2.90;1.52;;;;;;;1.82;62.43;101442.63;3553779;40;20805;-43
2021/04/26 05:50:15;;;;;;;4.18;1.20;;;;;;;1.92;62.72;101449.22;3557039;40;20046;-46
2021/04/26 05:52:41;;;;;;;2.70;1.30;;;;;;;1.98;62.16;101448.00;3556909;40;20049;-45
2021/04/26 05:55:09;;;;;;;6.15;1.70;;;;;;;2.09;62.08;101450.44;3557709;40;20051;-43
2021/04/26 05:57:35;;;;;;;4.28;1.98;;;;;;;2.88;59.33;101456.03;3559744;40;20057;-43
2021/04/26 06:00:04;;;;;;;5.72;1.60;;;;;;;2.59;60.72;101454.03;3559000;40;20089;-41
2021/04/26 06:02:30;;;;;;;3.28;1.30;;;;;;;3.25;58.66;101450.94;3558699;40;20057;-42
2021/04/26 06:05:17;;;;;;;3.72;1.30;;;;;;;3.25;58.67;101450.94;3558674;40;20440;-43
2021/04/26 06:07:45;;;;;;;3.75;1.42;;;;;;;3.35;57.28;101455.84;3557358;40;20045;-42
2021/04/26 06:10:12;;;;;;;4.55;1.27;;;;;;;3.44;57.23;101456.44;3558328;40;20049;-45
2021/04/26 06:12:39;;;;;;;2.40;1.45;;;;;;;3.87;56.49;101453.31;3556079;40;20057;-45
2021/04/26 06:15:07;;;;;;;4.47;1.40;;;;;;;3.97;55.91;101456.53;3557643;40;20039;-44
2021/04/26 06:17:34;;;;;;;3.75;1.80;;;;;;;4.23;55.76;101449.72;3553532;40;20066;-44
2021/04/26 06:20:00;;;;;;;3.25;1.45;;;;;;;4.61;54.15;101449.56;3559060;40;20092;-44
2021/04/26 06:22:27;;;;;;;3.30;1.95;;;;;;;4.66;54.14;101442.25;3562371;40;20053;-42
2021/04/26 06:24:57;;;;;;;3.08;1.42;;;;;;;4.66;53.24;101445.66;3559225;40;20109;-42
2021/04/26 06:27:29;;;;;;;3.55;1.30;;;;;;;4.87;52.80;101453.72;3560486;40;20051;-41
2021/04/26 06:30:03;;;;;;;1.45;1.10;;;;;;;4.90;53.41;101448.84;3556492;40;20060;-44
2021/04/26 06:32:30;;;;;;;1.58;1.05;;;;;;;5.33;51.71;101451.41;3557970;40;20066;-41
2021/04/26 06:34:57;;;;;;;3.47;1.25;;;;;;;5.31;51.54;101450.41;3559017;40;20407;-43
2021/04/26 06:37:24;;;;;;;2.85;1.15;;;;;;;5.50;51.12;101450.72;3562335;40;20057;-42
2021/04/26 06:39:50;;;;;;;2.17;0.90;;;;;;;5.51;50.90;101449.06;3561598;40;20053;-43
2021/04/26 06:42:19;;;;;;;3.20;1.13;;;;;;;5.71;49.90;101447.66;3556688;40;20065;-42
2021/04/26 06:44:46;;;;;;;4.57;1.23;;;;;;;5.97;50.05;101452.59;3558004;40;20174;-42
2021/04/26 06:47:13;;;;;;;4.03;1.73;;;;;;;6.42;49.68;101453.38;3558161;40;20058;-46
2021/04/26 06:49:39;;;;;;;2.35;0.88;;;;;;;6.73;48.37;101453.38;3554366;40;20076;-41
2021/04/26 06:52:09;;;;;;;7.13;1.00;;;;;;;6.71;48.83;101451.53;3552664;40;20046;-44
2021/04/26 06:54:36;;;;;;;5.70;1.00;;;;;;;6.90;48.25;101439.00;3548253;40;20049;-41
2021/04/26 06:57:03;;;;;;;2.05;0.75;;;;;;;7.27;46.81;101438.34;3555041;40;20059;-45
2021/04/26 06:59:29;;;;;;;1.55;0.88;;;;;;;7.67;46.52;101436.09;3554210;40;20459;-41
2021/04/26 07:01:56;;;;;;;4.30;1.02;;;;;;;8.47;44.32;101434.84;3553231;40;20332;-40
2021/04/26 07:04:23;;;;;;;5.35;0.80;;;;;;;9.09;42.74;101434.22;3555077;40;20062;-46
2021/04/26 07:06:50;;;;;;;2.45;0.80;;;;;;;9.99;40.90;101430.34;3553005;40;20308;-41
2021/04/26 07:09:18;;;;;;;4.07;1.05;;;;;;;10.20;40.35;101431.16;3553019;40;20069;-42
2021/04/26 07:11:45;;;;;;;3.15;0.73;;;;;;;10.07;41.27;101421.25;3551433;40;20485;-41
2021/04/26 07:14:12;;;;;;;2.72;0.90;;;;;;;9.53;42.33;101430.16;3553056;40;20058;-42
2021/04/26 07:16:40;;;;;;;3.55;0.80;;;;;;;8.51;42.88;101422.31;3553703;40;20062;-43
2021/04/26 07:19:08;;;;;;;3.40;0.60;;;;;;;8.25;44.29;101418.50;3553278;40;20053;-40
2021/04/26 07:21:35;;;;;;;3.30;0.85;;;;;;;8.17;44.13;101425.78;3559643;40;20507;-41
2021/04/26 07:24:02;;;;;;;2.58;0.80;;;;;;;7.82;44.72;101426.69;3561424;40;20119;-45
2021/04/26 07:26:30;;;;;;;2.78;0.60;;;;;;;8.00;44.36;101424.13;3554646;40;20093;-43
2021/04/26 07:28:56;;;;;;;1.95;1.00;;;;;;;7.72;44.58;101419.38;3556223;40;20077;-42
2021/04/26 07:31:23;;;;;;;1.10;0.65;;;;;;;7.75;45.00;101419.50;3560066;40;20404;-44
2021/04/26 07:33:49;;;;;;;3.13;0.63;;;;;;;7.77;46.09;101420.47;3561653;40;20076;-40
2021/04/26 07:36:17;;;;;;;1.40;0.60;;;;;;;7.99;44.35;101424.03;3553280;40;20096;-42
2021/04/26 07:38:44;;;;;;;1.95;0.60;;;;;;;7.94;45.54;101420.41;3551163;40;20581;-40
2021/04/26 07:41:11;;;;;;;2.53;0.70;;;;;;;7.78;44.73;101418.81;3550146;40;20454;-39
2021/04/26 07:43:39;;;;;;;2.20;0.80;;;;;;;7.94;43.46;101420.41;3550409;40;20057;-39
2021/04/26 07:46:06;;;;;;;1.55;0.60;;;;;;;8.00;43.05;101425.81;3552607;40;20069;-40
2021/04/26 07:48:33;;;;;;;3.95;0.57;;;;;;;7.79;42.93;101423.97;3553760;40;20054;-41
2021/04/26 07:51:00;;;;;;;1.55;0.43;;;;;;;7.55;42.52;101423.66;3551705;40;20054;-41
2021/04/26 07:53:26;;;;;;;2.42;0.60;;;;;;;8.02;42.89;101419.97;3551281;40;20054;-40
2021/04/26 07:55:53;;;;;;;2.70;0.60;;;;;;;7.69;42.50;101418.34;3551351;40;20089;-40
2021/04/26 07:58:20;;;;;;;5.25;0.60;;;;;;;7.86;42.13;101427.69;3556059;40;20162;-41
2021/04/26 08:00:47;;;;;;;2.63;0.60;;;;;;;8.03;43.41;101428.50;3557589;40;20068;-41
2021/04/26 08:03:15;;;;;;;1.58;0.63;;;;;;;7.47;43.05;101422.38;3552891;40;20049;-41
2021/04/26 08:05:43;;;;;;;1.38;0.40;;;;;;;7.37;43.75;101428.69;3554330;40;20060;-44
2021/04/26 08:08:09;;;;;;;2.40;0.60;;;;;;;7.57;42.95;101427.13;3555810;40;20057;-42
2021/04/26 08:10:37;;;;;;;4.43;0.90;;;;;;;7.15;43.38;101419.06;3557841;40;20060;-45
2021/04/26 08:13:04;;;;;;;5.60;0.95;;;;;;;7.62;43.46;101415.47;3554764;40;20051;-41
2021/04/26 08:15:31;;;;;;;1.63;0.50;;;;;;;7.71;40.39;101411.63;3552578;40;20054;-42
2021/04/26 08:17:58;;;;;;;1.25;0.70;;;;;;;8.02;42.63;101421.66;3552699;40;20154;-41
2021/04/26 08:20:25;;;;;;;2.55;0.60;;;;;;;8.36;41.35;101419.91;3555646;40;20060;-42
2021/04/26 08:22:52;;;;;;;0.80;0.70;;;;;;;8.16;40.28;101411.28;3554212;40;20082;-41
2021/04/26 08:25:19;;;;;;;3.08;0.57;;;;;;;8.43;42.26;101410.00;3551518;40;20039;-44
2021/04/26 08:27:47;;;;;;;1.73;0.73;;;;;;;7.97;41.68;101413.78;3552480;40;20057;-41
2021/04/26 08:30:13;;;;;;;0.52;0.45;;;;;;;8.08;40.50;101416.84;3552589;40;20368;-42
2021/04/26 08:32:40;;;;;;;2.78;0.73;;;;;;;8.64;39.82;101403.28;3552596;40;20088;-44
2021/04/26 08:35:08;;;;;;;0.98;0.50;;;;;;;9.66;38.41;101407.72;3552439;40;20094;-41
2021/04/26 08:37:35;;;;;;;3.13;0.90;;;;;;;10.59;35.39;101407.94;3554787;40;20115;-40
2021/04/26 08:40:03;;;;;;;1.75;0.68;;;;;;;12.51;32.86;101414.31;3555985;40;20060;-39
2021/04/26 08:42:30;;;;;;;2.10;0.50;;;;;;;12.81;31.59;101422.06;3555597;40;20050;-39
2021/04/26 08:44:59;;;;;;;1.10;0.52;;;;;;;11.84;32.01;101423.41;3555871;40;20309;-39
2021/04/26 08:47:30;;;;;;;2.30;0.70;;;;;;;11.47;33.07;101412.75;3554192;40;20138;-39
2021/04/26 08:49:58;;;;;;;3.40;0.65;;;;;;;9.61;33.85;101408.31;3557346;40;20054;-40
2021/04/26 08:52:25;;;;;;;1.35;0.55;;;;;;;10.93;34.19;101410.03;3558558;40;20050;-40
2021/04/26 08:54:57;;;;;;;1.42;0.60;;;;;;;10.82;34.51;101407.91;3557271;40;20052;-40
2021/04/26 08:57:25;;;;;;;1.08;0.60;;;;;;;10.94;34.76;101411.75;3555061;40;20069;-40
2021/04/26 08:59:57;;;;;;;3.92;0.73;;;;;;;10.88;35.97;101398.75;3559624;40;20144;-39
2021/04/26 09:02:24;;;;;;;6.65;1.10;;;;;;;10.20;34.84;101405.56;3555532;40;20389;-41
2021/04/26 09:04:57;;;;;;;1.33;0.55;;;;;;;9.75;35.38;101404.63;3554246;40;20082;-41
2021/04/26 09:07:24;;;;;;;5.00;0.90;;;;;;;9.90;35.52;101405.25;3561040;40;20102;-39
2021/04/26 09:09:53;;;;;;;5.00;1.02;;;;;;;10.32;34.86;101406.91;3548890;40;20683;-40
2021/04/26 09:12:25;;;;;;;1.42;0.70;;;;;;;9.68;35.53;101407.75;3556688;40;20568;-39
2021/04/26 09:14:53;;;;;;;2.22;0.93;;;;;;;10.47;35.52;101402.34;3553061;40;20062;-39
2021/04/26 09:17:33;;;;;;;1.30;0.50;;;;;;;11.07;31.26;101399.41;3554842;40;20069;-39
2021/04/26 09:20:20;;;;;;;1.85;0.55;;;;;;;12.05;29.93;101405.22;3553381;40;20060;-41
2021/04/26 09:22:47;;;;;;;3.22;0.55;;;;;;;11.88;31.51;101395.31;3557207;40;20101;-42
2021/04/26 09:25:38;;;;;;;1.30;0.43;;;;;;;12.06;31.12;101399.25;3561140;40;20068;-42
2021/04/26 09:28:12;;;;;;;2.17;0.77;;;;;;;12.16;30.40;101396.19;3552922;40;20061;-45
2021/04/26 09:30:43;;;;;;;3.55;0.77;;;;;;;12.26;30.45;101390.50;3558560;40;20061;-47
2021/04/26 09:33:49;;;;;;;3.90;0.50;;;;;;;12.32;29.32;101398.38;3562589;40;20092;-43
2021/04/26 09:36:18;;;;;;;1.27;0.50;;;;;;;11.09;30.34;101392.63;3556703;40;20061;-42
2021/04/26 09:38:48;;;;;;;2.20;0.52;;;;;;;11.79;30.00;101400.13;3558349;40;20058;-42
2021/04/26 09:41:20;;;;;;;1.55;0.55;;;;;;;12.54;29.42;101393.88;3563072;40;20057;-42
2021/04/26 09:44:06;;;;;;;4.05;0.60;;;;;;;13.52;27.82;101383.69;3558876;40;20062;-42
2021/04/26 09:46:47;;;;;;;1.20;0.50;;;;;;;13.86;26.31;101383.63;3550509;40;20065;-46
2021/04/26 09:49:24;;;;;;;0.80;0.60;;;;;;;12.96;27.96;101383.91;3561449;40;20272;-41
2021/04/26 09:51:58;;;;;;;4.15;0.68;;;;;;;12.71;29.90;101378.13;3554576;40;20336;-41
2021/04/26 09:54:38;;;;;;;0.93;0.50;;;;;;;11.51;29.46;101384.63;3553734;40;20053;-41
2021/04/26 09:57:05;;;;;;;0.55;0.38;;;;;;;12.43;28.60;101383.25;3553307;40;20128;-40
2021/04/26 09:59:32;;;;;;;2.15;0.63;;;;;;;12.54;29.57;101389.59;3553072;40;20045;-40
2021/04/26 10:02:00;;;;;;;0.85;0.50;;;;;;;13.41;27.09;101380.84;3551835;40;20071;-41
2021/04/26 10:04:27;;;;;;;1.27;0.55;;;;;;;14.31;25.58;101375.22;3553720;40;20551;-41
2021/04/26 10:06:56;;;;;;;1.95;0.50;;;;;;;17.37;23.87;101374.75;3553924;40;20083;-38
2021/04/26 10:09:25;;;;;;;1.05;0.50;;;;;;;18.90;20.03;101388.63;3554976;40;20050;-40
2021/04/26 10:11:53;;;;;;;1.00;0.60;;;;;;;18.23;21.57;101380.56;3553516;40;20172;-43
2021/04/26 10:14:21;;;;;;;1.80;0.52;;;;;;;18.40;21.23;101380.66;3555235;40;20136;-41
2021/04/26 10:16:50;;;;;;;1.85;0.60;;;;;;;17.03;20.75;101368.41;3555780;40;20108;-40
2021/04/26 10:19:17;;;;;;;0.85;0.60;;;;;;;16.31;23.04;101367.53;3553168;40;20612;-41
2021/04/26 10:21:56;;;;;;;4.00;1.00;;;;;;;15.59;23.00;101360.44;3553417;40;20054;-39
2021/04/26 10:24:26;;;;;;;1.30;0.60;;;;;;;15.05;22.49;101359.50;3551996;40;20076;-40
2021/04/26 10:27:08;;;;;;;1.00;0.57;;;;;;;15.78;21.50;101354.75;3553065;40;20048;-44
2021/04/26 10:29:38;;;;;;;0.80;0.40;;;;;;;15.20;22.05;101352.03;3554625;40;20068;-42
2021/04/26 10:32:06;;;;;;;1.38;0.63;;;;;;;15.32;23.03;101346.22;3556443;40;20049;-40
2021/04/26 10:34:42;;;;;;;4.20;0.57;;;;;;;14.26;24.36;101349.34;3555415;40;20054;-40
2021/04/26 10:37:17;;;;;;;1.75;1.13;;;;;;;15.31;23.05;101344.50;3554625;40;20076;-40
2021/04/26 10:40:12;;;;;;;4.65;0.57;;;;;;;14.20;23.29;101338.91;3556235;40;20057;-40
2021/04/26 10:42:47;;;;;;;3.85;0.60;;;;;;;13.74;24.83;101339.59;3553289;40;20046;-41
2021/04/26 10:45:21;;;;;;;1.13;0.52;;;;;;;13.48;23.72;101320.97;3554639;40;20053;-41
2021/04/26 10:47:54;;;;;;;2.13;0.93;;;;;;;13.42;25.91;101324.28;3558263;40;20042;-40
2021/04/26 10:50:21;;;;;;;2.20;0.68;;;;;;;12.80;26.02;101325.19;3544121;40;20471;-40
2021/04/26 10:52:53;;;;;;;1.45;0.50;;;;;;;11.91;28.20;101322.66;3544608;40;20149;-44
2021/04/26 10:55:23;;;;;;;1.70;0.60;;;;;;;11.36;27.32;101319.19;3543854;40;20050;-40
2021/04/26 10:58:02;;;;;;;4.47;0.60;;;;;;;12.12;28.31;101317.31;3560091;40;20074;-44
2021/04/26 11:00:35;;;;;;;0.43;0.43;;;;;;;12.02;28.46;101320.41;3560678;40;20034;-41
2021/04/26 11:03:05;;;;;;;3.17;0.80;;;;;;;12.53;27.62;101308.22;3550920;40;20339;-40
2021/04/26 11:05:36;;;;;;;2.42;0.82;;;;;;;13.49;26.49;101308.13;3552764;40;20056;-41
2021/04/26 11:08:15;;;;;;;2.47;0.65;;;;;;;14.97;24.56;101315.50;3555511;40;20052;-40
2021/04/26 11:10:48;;;;;;;2.30;0.57;;;;;;;19.14;21.60;101332.47;3555404;40;20113;-42
2021/04/26 11:13:33;;;;;;;2.80;0.55;;;;;;;19.08;19.40;101320.31;3555565;40;20459;-42
2021/04/26 11:16:17;;;;;;;2.15;0.60;;;;;;;16.04;22.07;101306.03;3554451;40;20053;-39
2021/04/26 11:18:58;;;;;;;2.00;0.60;;;;;;;16.69;22.24;101312.84;3556173;40;20502;-39
2021/04/26 11:21:44;;;;;;;2.05;0.70;;;;;;;16.75;22.70;101315.50;3543456;40;20062;-43
2021/04/26 11:24:36;;;;;;;3.50;0.60;;;;;;;16.12;23.96;101313.88;3554453;40;20045;-43
2021/04/26 11:27:08;;;;;;;2.97;0.75;;;;;;;15.34;25.30;101305.81;3574859;22;20033;-46
2021/04/26 11:29:55;;;;;;;1.27;0.60;;;;;;;16.28;24.30;101302.88;3574891;40;20068;-50
2021/04/26 11:32:24;;;;;;;1.15;0.80;;;;;;;16.01;23.43;101293.06;3572188;40;20453;-51
2021/04/26 11:34:53;;;;;;;4.20;1.05;;;;;;;16.14;25.69;101294.97;3574003;40;20135;-56
2021/04/26 11:37:21;;;;;;;1.75;0.70;;;;;;;14.35;25.64;101294.56;3583664;40;20044;-56
2021/04/26 11:39:51;;;;;;;1.67;0.52;;;;;;;14.62;26.37;101294.25;3583406;40;20045;-54
2021/04/26 11:42:32;;;;;;;0.93;0.65;;;;;;;14.74;26.17;101291.94;3583320;40;20060;-52